Time;durP1;ratioP1;P1;durP2;ratioP2;P2;SDS_P1;SDS_P2;PMS_P1;PMS_P2;Temp;Humidity;BMP_temperature;BMP_pressure;BME280_temperature;BME280_humidity;BME280_pressure;Samples;Min_cycle;Max_cycle;Signal;HPM_P1;HPM_P2
2022/07/20 00:02:21;;;;;;;3.50;3.20;;;27.50;56.50;;;;;;5032958;28;20537;-69
2022/07/20 00:04:51;;;;;;;3.55;3.13;;;27.50;56.40;;;;;;5036304;28;20036;-69
2022/07/20 00:07:17;;;;;;;5.05;3.13;;;27.50;56.40;;;;;;5036018;28;20026;-69
2022/07/20 00:12:26;;;;;;;4.18;3.10;;;27.50;56.40;;;;;;5035936;28;20131;-69
2022/07/20 00:14:52;;;;;;;3.25;2.72;;;27.50;56.40;;;;;;5036006;28;20053;-69
2022/07/20 00:17:18;;;;;;;3.33;3.03;;;27.50;56.40;;;;;;5035752;28;20472;-69
2022/07/20 00:19:43;;;;;;;3.28;2.90;;;27.40;56.30;;;;;;5035986;28;20022;-69
2022/07/20 00:22:09;;;;;;;3.03;2.75;;;27.40;56.30;;;;;;5035762;28;20040;-69
2022/07/20 00:24:35;;;;;;;2.78;2.58;;;27.40;56.30;;;;;;5067983;28;20029;-69
2022/07/20 00:27:01;;;;;;;3.38;3.05;;;27.40;56.30;;;;;;5055547;28;20023;-69
2022/07/20 00:29:26;;;;;;;2.90;2.70;;;27.50;56.30;;;;;;5054542;28;20116;-69
2022/07/20 00:31:52;;;;;;;3.10;2.80;;;27.50;56.40;;;;;;5055401;28;20033;-69
2022/07/20 00:34:18;;;;;;;3.70;2.65;;;27.40;56.30;;;;;;5054403;28;20398;-69
2022/07/20 00:36:43;;;;;;;3.03;2.78;;;27.40;56.30;;;;;;5055432;28;20021;-69
2022/07/20 00:39:09;;;;;;;2.50;2.30;;;27.40;56.20;;;;;;5054408;28;20017;-69
2022/07/20 00:41:34;;;;;;;5.25;2.70;;;27.40;56.30;;;;;;5055429;28;20029;-69
2022/07/20 00:44:05;;;;;;;3.25;2.95;;;27.40;56.20;;;;;;5055358;28;20025;-69
2022/07/20 00:46:36;;;;;;;2.88;2.58;;;27.40;56.10;;;;;;5055192;28;20499;-69
2022/07/20 00:49:01;;;;;;;4.00;2.60;;;27.40;56.10;;;;;;5055290;28;20565;-69
2022/07/20 00:51:27;;;;;;;3.30;2.60;;;27.40;56.10;;;;;;5049395;28;20041;-69
2022/07/20 00:53:53;;;;;;;2.40;2.20;;;27.40;56.10;;;;;;5035220;28;20042;-69
2022/07/20 00:56:19;;;;;;;3.30;2.25;;;27.40;56.20;;;;;;5067478;28;20037;-69
2022/07/20 00:58:45;;;;;;;2.83;2.53;;;27.40;56.10;;;;;;5035259;28;20021;-69
2022/07/20 01:01:11;;;;;;;2.40;2.20;;;27.40;56.10;;;;;;5067041;28;20425;-69
2022/07/20 01:03:37;;;;;;;2.67;2.47;;;27.40;56.20;;;;;;5035186;28;20021;-69
2022/07/20 01:06:02;;;;;;;2.58;2.35;;;27.30;56.10;;;;;;5066975;28;20025;-69
2022/07/20 01:08:28;;;;;;;2.70;2.50;;;27.40;56.20;;;;;;5067058;28;20476;-69
2022/07/20 01:10:55;;;;;;;2.33;2.13;;;27.40;56.20;;;;;;5035003;28;20036;-69
2022/07/20 01:13:20;;;;;;;2.83;2.20;;;27.40;56.20;;;;;;5066236;28;20038;-69
2022/07/20 01:15:46;;;;;;;2.38;2.17;;;27.40;56.20;;;;;;5034119;28;20032;-69
2022/07/20 01:18:12;;;;;;;2.80;2.50;;;27.30;57.10;;;;;;5034810;28;20017;-69
2022/07/20 01:20:37;;;;;;;2.63;2.03;;;27.40;56.20;;;;;;5066783;28;20032;-69
2022/07/20 01:23:03;;;;;;;2.40;2.13;;;27.40;56.20;;;;;;5050208;28;20017;-69
2022/07/20 01:25:28;;;;;;;2.42;2.22;;;27.40;56.20;;;;;;5034700;28;20554;-69
2022/07/20 01:27:57;;;;;;;2.28;1.98;;;27.30;56.10;;;;;;5049602;28;20029;-69
2022/07/20 01:30:22;;;;;;;2.60;2.33;;;27.30;56.20;;;;;;5054515;28;20040;-69
2022/07/20 01:32:48;;;;;;;2.35;2.15;;;27.30;56.10;;;;;;5054353;28;20025;-69
2022/07/20 01:35:14;;;;;;;2.30;2.10;;;27.30;56.10;;;;;;5054347;28;20028;-69
2022/07/20 01:37:39;;;;;;;2.33;2.10;;;27.30;56.10;;;;;;5054434;28;20021;-69
2022/07/20 01:40:05;;;;;;;2.25;1.92;;;27.30;56.10;;;;;;5054281;28;20021;-69
2022/07/20 01:42:31;;;;;;;1.92;1.80;;;27.30;56.10;;;;;;5054203;28;20013;-69
2022/07/20 01:44:57;;;;;;;2.55;1.98;;;27.30;56.10;;;;;;5054088;28;20086;-69
2022/07/20 01:47:22;;;;;;;3.58;2.10;;;27.30;56.10;;;;;;5054385;28;20376;-69
2022/07/20 01:49:48;;;;;;;2.20;2.00;;;27.30;56.20;;;;;;5054090;28;20406;-69
2022/07/20 01:52:14;;;;;;;2.08;1.90;;;27.30;56.20;;;;;;5048325;28;20044;-69
2022/07/20 01:54:39;;;;;;;2.30;2.03;;;27.30;56.20;;;;;;5034048;28;20037;-69
2022/07/20 01:57:05;;;;;;;2.45;1.73;;;27.30;56.20;;;;;;5034101;28;20029;-69
2022/07/20 01:59:30;;;;;;;2.42;1.98;;;27.30;56.10;;;;;;5033889;28;20026;-69
2022/07/20 02:01:56;;;;;;;3.13;2.20;;;27.30;56.10;;;;;;5033926;28;20022;-69
2022/07/20 02:04:22;;;;;;;2.08;1.83;;;27.30;56.10;;;;;;5034024;28;20422;-69
2022/07/20 02:06:47;;;;;;;2.08;1.88;;;27.30;56.20;;;;;;5066159;28;20518;-69
2022/07/20 02:09:13;;;;;;;2.05;1.67;;;27.30;56.20;;;;;;5033754;28;20057;-69
2022/07/20 02:11:38;;;;;;;2.38;1.90;;;27.30;56.20;;;;;;5033831;28;20590;-69
2022/07/20 02:14:04;;;;;;;1.60;1.50;;;27.30;56.20;;;;;;5033519;28;20034;-69
2022/07/20 02:16:30;;;;;;;2.00;1.80;;;27.20;56.10;;;;;;5033801;28;20021;-69
2022/07/20 02:18:55;;;;;;;1.65;1.55;;;27.20;56.10;;;;;;5033686;28;20082;-69
2022/07/20 02:21:21;;;;;;;2.80;1.77;;;27.20;56.10;;;;;;5065872;28;20384;-69
2022/07/20 02:23:47;;;;;;;2.13;1.80;;;27.20;56.10;;;;;;5065554;28;20030;-69
2022/07/20 02:26:13;;;;;;;2.42;1.60;;;27.20;56.10;;;;;;5033425;28;20029;-69
2022/07/20 02:28:39;;;;;;;1.75;1.65;;;27.20;56.10;;;;;;5052785;28;20089;-69
2022/07/20 02:31:05;;;;;;;1.70;1.60;;;27.20;56.10;;;;;;5053484;28;20027;-69
2022/07/20 02:33:30;;;;;;;2.00;1.80;;;27.20;56.10;;;;;;5053124;28;20410;-69
2022/07/20 02:35:56;;;;;;;2.05;1.85;;;27.20;56.10;;;;;;5053475;28;20063;-69
2022/07/20 02:38:22;;;;;;;1.90;1.52;;;27.20;56.10;;;;;;5053356;28;20052;-69
2022/07/20 02:40:48;;;;;;;2.15;1.77;;;27.20;56.10;;;;;;5052084;28;20017;-69
2022/07/20 02:43:14;;;;;;;1.70;1.60;;;27.20;56.10;;;;;;5052930;28;20032;-69
2022/07/20 02:45:39;;;;;;;1.60;1.42;;;27.20;56.10;;;;;;5053230;28;20394;-69
2022/07/20 02:48:05;;;;;;;1.70;1.45;;;27.20;56.10;;;;;;5051845;28;20506;-69
2022/07/20 02:50:37;;;;;;;1.65;1.52;;;27.20;56.00;;;;;;5035141;28;20033;-69
2022/07/20 02:53:04;;;;;;;1.60;1.50;;;27.20;56.10;;;;;;5043788;28;20121;-69
2022/07/20 02:55:29;;;;;;;1.42;1.33;;;27.20;56.00;;;;;;5064772;28;20057;-69
2022/07/20 02:57:55;;;;;;;1.48;1.38;;;27.20;56.10;;;;;;5032836;28;20052;-69
2022/07/20 03:00:21;;;;;;;1.60;1.42;;;27.20;56.10;;;;;;5033107;28;20040;-69
2022/07/20 03:02:47;;;;;;;2.10;1.63;;;27.20;56.00;;;;;;5032953;28;20034;-69
2022/07/20 03:05:13;;;;;;;1.70;1.60;;;27.20;56.10;;;;;;5032979;28;20503;-69
2022/07/20 03:07:38;;;;;;;1.40;1.30;;;27.20;56.10;;;;;;5032865;28;20057;-69
2022/07/20 03:10:05;;;;;;;2.25;1.38;;;27.10;56.00;;;;;;5032750;28;20029;-69
2022/07/20 03:12:30;;;;;;;2.55;1.67;;;27.20;56.10;;;;;;5064386;28;20060;-69
2022/07/20 03:14:56;;;;;;;1.45;1.27;;;27.20;56.10;;;;;;5032678;28;20104;-69
2022/07/20 03:17:22;;;;;;;2.40;1.27;;;27.20;56.10;;;;;;5032659;28;20021;-69
2022/07/20 03:19:47;;;;;;;1.83;1.52;;;27.20;56.00;;;;;;5032802;28;20508;-69
2022/07/20 03:22:13;;;;;;;1.55;1.45;;;27.20;56.10;;;;;;5032539;28;20132;-69
2022/07/20 03:24:39;;;;;;;1.45;1.20;;;27.20;56.00;;;;;;5032697;28;20071;-69
2022/07/20 03:27:04;;;;;;;1.55;1.30;;;27.10;56.00;;;;;;5034136;28;20104;-69
2022/07/20 03:29:30;;;;;;;1.40;1.27;;;27.10;55.90;;;;;;5052533;28;20099;-69
2022/07/20 03:31:56;;;;;;;1.40;1.30;;;27.10;55.90;;;;;;5034801;28;20033;-69
2022/07/20 03:34:21;;;;;;;1.45;1.35;;;27.10;55.90;;;;;;5052525;28;20071;-69
2022/07/20 03:36:48;;;;;;;1.58;1.40;;;27.10;55.90;;;;;;5052058;28;20086;-69
2022/07/20 03:39:14;;;;;;;1.33;1.20;;;27.10;56.00;;;;;;5052018;28;20024;-69
2022/07/20 03:41:40;;;;;;;1.25;1.13;;;27.10;56.00;;;;;;5052286;28;20025;-69
2022/07/20 03:44:06;;;;;;;2.28;1.40;;;27.10;56.00;;;;;;5052253;28;20107;-69
2022/07/20 03:46:31;;;;;;;1.55;1.25;;;27.10;57.00;;;;;;5052442;28;20036;-69
2022/07/20 03:48:57;;;;;;;1.58;1.10;;;27.10;56.00;;;;;;5052146;28;20029;-69
2022/07/20 03:51:23;;;;;;;1.40;1.30;;;27.10;56.00;;;;;;5052110;28;20166;-69
2022/07/20 03:53:48;;;;;;;2.08;1.40;;;27.10;56.00;;;;;;5038479;28;20086;-69
2022/07/20 03:56:14;;;;;;;1.13;1.02;;;27.10;56.00;;;;;;5032251;28;20038;-69
2022/07/20 03:58:40;;;;;;;1.42;1.33;;;27.10;56.00;;;;;;5032349;28;20014;-69
2022/07/20 04:01:05;;;;;;;1.60;1.40;;;27.10;56.00;;;;;;5031063;28;20025;-69
2022/07/20 04:03:31;;;;;;;1.58;1.25;;;27.10;56.00;;;;;;5064168;28;20375;-69
2022/07/20 04:05:56;;;;;;;2.00;1.35;;;27.10;56.00;;;;;;5032372;28;20022;-69
2022/07/20 04:08:22;;;;;;;1.40;1.30;;;27.10;56.10;;;;;;5032283;28;20488;-69
2022/07/20 04:10:48;;;;;;;1.60;1.30;;;27.10;56.10;;;;;;5064066;28;20124;-69
2022/07/20 04:13:13;;;;;;;1.30;1.20;;;27.10;56.00;;;;;;5031945;28;20069;-69
2022/07/20 04:15:39;;;;;;;1.63;1.40;;;27.10;56.10;;;;;;5032020;28;20065;-69
2022/07/20 04:18:04;;;;;;;1.45;1.35;;;27.10;56.10;;;;;;5032111;28;20105;-69
2022/07/20 04:20:30;;;;;;;1.33;1.23;;;27.10;56.00;;;;;;5032171;28;20026;-69
2022/07/20 04:22:56;;;;;;;1.55;1.30;;;27.00;56.00;;;;;;5032302;28;20018;-69
2022/07/20 04:25:22;;;;;;;1.58;1.25;;;27.00;55.90;;;;;;5031844;28;20475;-69
2022/07/20 04:27:49;;;;;;;1.33;1.23;;;27.00;56.00;;;;;;5033089;28;20021;-69
2022/07/20 04:30:15;;;;;;;1.70;1.20;;;27.00;56.00;;;;;;5051846;28;20053;-69
2022/07/20 04:32:41;;;;;;;1.55;1.08;;;27.00;56.00;;;;;;5051993;28;20051;-69
2022/07/20 04:35:07;;;;;;;1.30;1.10;;;27.00;56.00;;;;;;5051797;28;20029;-69
2022/07/20 04:37:33;;;;;;;1.23;1.10;;;27.00;56.00;;;;;;5050485;28;20391;-69
2022/07/20 04:39:58;;;;;;;1.58;1.30;;;27.00;55.90;;;;;;5051593;28;20021;-69
2022/07/20 04:42:24;;;;;;;1.30;1.20;;;27.00;56.00;;;;;;5050722;28;20025;-69
2022/07/20 04:44:50;;;;;;;1.33;1.15;;;27.00;56.00;;;;;;5051713;28;20029;-69
2022/07/20 04:47:15;;;;;;;1.75;1.40;;;27.00;55.90;;;;;;5051835;28;20028;-69
2022/07/20 04:49:41;;;;;;;2.17;1.40;;;27.00;55.90;;;;;;5052913;28;20029;-69
2022/07/20 04:52:07;;;;;;;2.35;1.27;;;27.00;56.00;;;;;;5055255;28;20407;-69
2022/07/20 04:54:32;;;;;;;1.52;1.42;;;27.00;55.90;;;;;;5042659;28;20091;-69
2022/07/20 04:56:59;;;;;;;1.73;1.45;;;27.00;55.90;;;;;;5067451;28;20116;-69
2022/07/20 04:59:24;;;;;;;1.42;1.20;;;27.00;55.90;;;;;;5035153;28;20045;-69
2022/07/20 05:01:50;;;;;;;1.55;1.45;;;27.00;55.90;;;;;;5035189;28;20041;-69
2022/07/20 05:04:16;;;;;;;1.77;1.30;;;27.00;55.90;;;;;;5035328;28;20502;-69
2022/07/20 05:06:41;;;;;;;1.80;1.00;;;27.00;55.90;;;;;;5035024;28;20018;-69
2022/07/20 05:09:09;;;;;;;1.25;1.15;;;27.00;55.80;;;;;;5034791;28;20040;-69
2022/07/20 05:11:35;;;;;;;1.17;1.00;;;27.00;55.90;;;;;;5034834;28;20474;-69
2022/07/20 05:14:01;;;;;;;1.55;1.20;;;26.90;55.80;;;;;;5034774;28;20116;-69
2022/07/20 05:16:27;;;;;;;1.10;1.00;;;26.90;55.70;;;;;;5034908;28;20045;-69
2022/07/20 05:18:52;;;;;;;2.45;1.10;;;26.90;55.70;;;;;;5034845;28;20554;-69
2022/07/20 05:21:18;;;;;;;2.35;1.20;;;26.90;55.60;;;;;;5034831;28;20032;-69
2022/07/20 05:23:44;;;;;;;1.70;1.33;;;26.90;55.70;;;;;;5034465;28;20396;-69
2022/07/20 05:26:09;;;;;;;1.50;1.30;;;26.90;55.70;;;;;;5034543;28;20036;-69
2022/07/20 05:28:35;;;;;;;1.20;1.00;;;26.90;55.80;;;;;;5033450;28;20532;-69
2022/07/20 05:31:02;;;;;;;1.83;1.40;;;26.90;55.80;;;;;;5053931;28;20519;-69
2022/07/20 05:33:28;;;;;;;2.25;1.10;;;26.90;55.80;;;;;;5053319;28;20024;-69
2022/07/20 05:35:53;;;;;;;2.15;1.05;;;26.90;55.80;;;;;;5054143;28;20021;-69
2022/07/20 05:38:19;;;;;;;1.70;1.20;;;26.90;55.80;;;;;;5054470;28;20032;-69
2022/07/20 05:40:46;;;;;;;1.73;1.50;;;26.90;55.80;;;;;;5036726;28;20088;-69
2022/07/20 05:43:11;;;;;;;1.50;1.20;;;26.90;55.80;;;;;;5054380;28;20036;-69
2022/07/20 05:45:37;;;;;;;1.38;1.20;;;26.90;55.80;;;;;;5054412;28;20032;-69
2022/07/20 05:48:05;;;;;;;1.50;1.08;;;26.90;56.90;;;;;;5054330;28;20029;-69
2022/07/20 05:50:31;;;;;;;1.35;1.25;;;26.90;55.80;;;;;;5053627;28;20032;-69
2022/07/20 05:52:57;;;;;;;1.20;1.10;;;26.90;55.90;;;;;;5053383;28;20033;-69
2022/07/20 05:55:23;;;;;;;1.92;1.33;;;26.90;55.90;;;;;;5037479;28;20105;-69
2022/07/20 05:57:48;;;;;;;1.38;1.13;;;26.90;55.90;;;;;;5034063;28;20398;-69
2022/07/20 06:00:14;;;;;;;1.40;1.30;;;26.90;55.90;;;;;;5033687;28;20021;-69
2022/07/20 06:02:40;;;;;;;2.15;1.40;;;26.90;55.90;;;;;;5034447;28;20032;-69
2022/07/20 06:05:06;;;;;;;1.38;1.02;;;26.90;55.90;;;;;;5033768;28;20057;-69
2022/07/20 06:07:31;;;;;;;1.17;1.08;;;26.90;55.90;;;;;;5033955;28;20136;-69
2022/07/20 06:09:57;;;;;;;1.73;1.27;;;26.90;55.90;;;;;;5033949;28;20195;-69
2022/07/20 06:12:23;;;;;;;1.58;1.20;;;26.90;55.90;;;;;;5033769;28;20053;-69
2022/07/20 06:14:48;;;;;;;1.42;1.15;;;26.90;55.90;;;;;;5033618;28;20025;-69
2022/07/20 06:17:14;;;;;;;1.90;1.45;;;26.80;55.90;;;;;;5065656;28;20029;-69
2022/07/20 06:19:39;;;;;;;2.13;1.52;;;26.90;55.90;;;;;;5033624;28;20507;-69
2022/07/20 06:22:05;;;;;;;1.40;1.20;;;26.80;55.90;;;;;;5033710;28;20060;-69
2022/07/20 06:24:31;;;;;;;1.90;1.30;;;26.80;55.90;;;;;;5033656;28;20451;-69
2022/07/20 06:26:56;;;;;;;1.30;1.20;;;26.80;55.90;;;;;;5033473;28;20388;-69
2022/07/20 06:29:22;;;;;;;1.38;1.27;;;26.80;55.90;;;;;;5038127;28;20021;-69
2022/07/20 06:31:47;;;;;;;1.48;1.38;;;26.80;55.90;;;;;;5053533;28;20033;-69
2022/07/20 06:34:13;;;;;;;1.30;1.20;;;26.80;55.90;;;;;;5053310;28;20123;-69
2022/07/20 06:36:39;;;;;;;1.30;1.17;;;26.80;55.90;;;;;;5053194;28;20029;-69
2022/07/20 06:39:04;;;;;;;2.08;1.50;;;26.80;55.90;;;;;;5053191;28;20021;-69
2022/07/20 06:41:30;;;;;;;1.27;1.17;;;26.80;56.00;;;;;;5053156;28;20029;-69
2022/07/20 06:43:56;;;;;;;1.70;1.27;;;26.80;55.90;;;;;;5053219;28;20487;-69
2022/07/20 06:46:21;;;;;;;1.40;1.30;;;26.80;56.00;;;;;;5053151;28;20025;-69
2022/07/20 06:48:47;;;;;;;1.30;1.20;;;26.80;56.00;;;;;;5052886;28;20029;-69
2022/07/20 06:51:12;;;;;;;1.60;1.30;;;26.80;56.00;;;;;;5052788;28;20029;-69
2022/07/20 06:53:38;;;;;;;1.25;1.15;;;26.80;56.00;;;;;;5051611;28;20096;-69
2022/07/20 06:56:04;;;;;;;1.42;1.30;;;26.80;56.00;;;;;;5033084;28;20025;-69
2022/07/20 06:58:30;;;;;;;1.60;1.38;;;26.80;56.00;;;;;;5033136;28;20032;-69
2022/07/20 07:00:56;;;;;;;1.70;1.30;;;26.80;56.00;;;;;;5033004;28;20017;-69
2022/07/20 07:03:21;;;;;;;1.45;1.35;;;26.80;56.00;;;;;;5032747;28;20032;-69
2022/07/20 07:05:47;;;;;;;2.25;1.40;;;26.80;57.00;;;;;;5033024;28;20101;-69
2022/07/20 07:08:13;;;;;;;1.70;1.45;;;26.80;56.00;;;;;;5032813;28;20064;-69
2022/07/20 07:10:38;;;;;;;1.60;1.27;;;26.80;56.00;;;;;;5032931;28;20538;-69
2022/07/20 07:13:04;;;;;;;1.63;1.27;;;26.80;56.00;;;;;;5063884;28;20045;-69
2022/07/20 07:15:30;;;;;;;1.30;1.20;;;26.80;56.00;;;;;;5032730;28;20061;-69
2022/07/20 07:17:56;;;;;;;1.50;1.30;;;26.80;56.00;;;;;;5032592;28;20472;-69
2022/07/20 07:20:21;;;;;;;1.40;1.25;;;26.80;56.00;;;;;;5065100;28;20025;-69
2022/07/20 07:22:47;;;;;;;1.63;1.48;;;26.80;56.00;;;;;;5064769;28;20108;-69
2022/07/20 07:25:13;;;;;;;2.53;1.50;;;26.80;56.00;;;;;;5064632;28;20068;-69
2022/07/20 07:27:38;;;;;;;1.48;1.30;;;26.80;56.00;;;;;;5032650;28;20099;-69
2022/07/20 07:30:05;;;;;;;1.70;1.52;;;26.80;56.00;;;;;;5039295;28;20397;-69
2022/07/20 07:32:30;;;;;;;1.77;1.40;;;26.80;56.10;;;;;;5052390;28;20059;-69
2022/07/20 07:34:56;;;;;;;1.65;1.27;;;26.80;56.00;;;;;;5052423;28;20483;-69
2022/07/20 07:37:22;;;;;;;1.80;1.50;;;26.80;56.00;;;;;;5052274;28;20032;-69
2022/07/20 07:39:48;;;;;;;1.55;1.45;;;26.80;56.00;;;;;;5052408;28;20021;-69
2022/07/20 07:42:14;;;;;;;1.30;1.20;;;26.70;56.00;;;;;;5052323;28;20029;-69
2022/07/20 07:44:40;;;;;;;1.50;1.38;;;26.80;56.10;;;;;;5052568;28;20103;-69
2022/07/20 07:47:05;;;;;;;1.50;1.40;;;26.70;56.10;;;;;;5052214;28;20036;-69
2022/07/20 07:49:31;;;;;;;1.65;1.55;;;26.70;56.00;;;;;;5052208;28;20506;-69
2022/07/20 07:51:57;;;;;;;1.95;1.58;;;26.80;56.00;;;;;;5052142;28;20032;-69
2022/07/20 07:54:23;;;;;;;1.70;1.20;;;26.80;56.10;;;;;;5046445;28;20036;-69
2022/07/20 07:56:49;;;;;;;3.28;1.60;;;26.80;56.10;;;;;;5032195;28;20503;-69
2022/07/20 07:59:14;;;;;;;2.20;1.58;;;26.80;56.00;;;;;;5064433;28;20044;-69
2022/07/20 08:01:40;;;;;;;2.35;1.70;;;26.70;56.00;;;;;;5032155;28;20060;-69
2022/07/20 08:04:06;;;;;;;2.00;1.80;;;26.70;56.00;;;;;;5032227;28;20326;-69
2022/07/20 08:06:31;;;;;;;2.30;1.73;;;26.80;56.10;;;;;;5032230;28;20536;-69
2022/07/20 08:08:57;;;;;;;2.33;1.67;;;26.70;56.00;;;;;;5032423;28;20018;-69
2022/07/20 08:11:23;;;;;;;1.67;1.50;;;26.70;56.00;;;;;;5031898;28;20120;-69
2022/07/20 08:13:49;;;;;;;1.90;1.67;;;26.70;56.00;;;;;;5032082;28;20112;-69
2022/07/20 08:16:15;;;;;;;2.20;1.80;;;26.70;56.00;;;;;;5031997;28;20108;-69
2022/07/20 08:18:40;;;;;;;1.60;1.50;;;26.70;56.00;;;;;;5032092;28;20048;-69
2022/07/20 08:21:06;;;;;;;1.92;1.60;;;26.70;56.00;;;;;;5064288;28;20022;-69
2022/07/20 08:23:32;;;;;;;2.15;1.88;;;26.70;56.00;;;;;;5033291;28;20032;-69
2022/07/20 08:25:57;;;;;;;1.92;1.70;;;26.70;56.10;;;;;;5035931;28;20029;-69
2022/07/20 08:28:23;;;;;;;2.25;1.70;;;26.70;56.10;;;;;;5035890;28;20506;-69
2022/07/20 08:30:50;;;;;;;2.03;1.83;;;26.70;56.10;;;;;;5037108;28;20033;-69
2022/07/20 08:33:16;;;;;;;1.73;1.63;;;26.70;56.10;;;;;;5054398;28;20510;-69
2022/07/20 08:35:42;;;;;;;2.10;1.90;;;26.70;56.10;;;;;;5055633;28;20027;-69
2022/07/20 08:38:07;;;;;;;2.50;1.70;;;26.70;56.10;;;;;;5054463;28;20087;-69
2022/07/20 08:40:33;;;;;;;1.80;1.70;;;26.70;56.10;;;;;;5055460;28;20480;-69
2022/07/20 08:42:59;;;;;;;1.95;1.42;;;26.70;56.00;;;;;;5055490;28;20028;-69
2022/07/20 08:45:25;;;;;;;1.73;1.63;;;26.70;56.10;;;;;;5055232;28;20029;-69
2022/07/20 08:47:50;;;;;;;2.25;1.70;;;26.70;56.10;;;;;;5054242;28;20559;-69
2022/07/20 08:50:24;;;;;;;2.10;1.90;;;26.70;56.00;;;;;;5037599;28;20032;-69
2022/07/20 08:52:50;;;;;;;1.98;1.77;;;26.70;56.10;;;;;;5055213;28;20036;-69
2022/07/20 08:55:15;;;;;;;2.28;1.88;;;26.70;56.10;;;;;;5042520;28;20057;-69
2022/07/20 08:57:42;;;;;;;2.47;1.80;;;26.70;56.10;;;;;;5067336;28;20045;-69
2022/07/20 09:00:08;;;;;;;1.92;1.70;;;26.70;56.10;;;;;;5035059;28;20396;-69
2022/07/20 09:02:47;;;;;;;2.80;1.80;;;26.70;56.20;;;;;;5035149;28;20463;-69
2022/07/20 09:05:13;;;;;;;1.80;1.65;;;26.70;56.10;;;;;;5035001;28;20060;-69
2022/07/20 09:07:42;;;;;;;2.15;1.60;;;26.70;56.20;;;;;;5035160;28;20533;-69
2022/07/20 09:10:12;;;;;;;1.80;1.50;;;26.60;56.10;;;;;;5033897;28;20457;-69
2022/07/20 09:13:00;;;;;;;2.13;1.73;;;26.70;56.10;;;;;;5066907;28;20049;-69
2022/07/20 09:15:39;;;;;;;1.88;1.77;;;26.70;56.20;;;;;;5034527;28;20059;-69
2022/07/20 09:18:11;;;;;;;2.28;1.73;;;26.70;56.20;;;;;;5067004;28;20044;-69
2022/07/20 09:20:39;;;;;;;1.80;1.70;;;26.70;56.10;;;;;;5034967;28;20017;-69
2022/07/20 09:23:10;;;;;;;1.70;1.60;;;26.70;56.30;;;;;;5066875;28;20021;-69
2022/07/20 09:25:36;;;;;;;1.80;1.70;;;26.70;56.20;;;;;;5066897;28;20028;-69
2022/07/20 09:28:01;;;;;;;2.25;1.80;;;26.70;56.20;;;;;;5034613;28;20037;-70
2022/07/20 09:30:28;;;;;;;2.67;1.98;;;26.60;56.10;;;;;;5050085;28;20361;-69
2022/07/20 09:32:59;;;;;;;2.35;1.70;;;26.70;56.30;;;;;;5041520;28;20112;-69
2022/07/20 09:35:30;;;;;;;1.67;1.52;;;26.70;56.20;;;;;;5053607;28;20017;-69
2022/07/20 09:37:57;;;;;;;1.70;1.60;;;26.70;56.20;;;;;;5054402;28;20103;-69
2022/07/20 09:40:23;;;;;;;1.95;1.55;;;26.60;56.10;;;;;;5053214;28;20063;-69
2022/07/20 09:42:49;;;;;;;2.25;1.77;;;26.60;56.10;;;;;;5052943;28;20025;-69
2022/07/20 09:45:28;;;;;;;1.80;1.70;;;26.70;56.20;;;;;;5054411;28;20100;-69
2022/07/20 09:48:03;;;;;;;2.10;1.90;;;26.60;56.10;;;;;;5054140;28;20048;-69
2022/07/20 09:50:30;;;;;;;2.42;1.95;;;26.60;56.10;;;;;;5054234;28;20029;-69
2022/07/20 09:52:57;;;;;;;2.17;1.77;;;26.60;56.10;;;;;;5054137;28;20048;-69
2022/07/20 09:55:22;;;;;;;1.80;1.70;;;26.60;56.10;;;;;;5054101;28;20021;-69
2022/07/20 09:57:49;;;;;;;2.47;1.67;;;26.60;56.10;;;;;;5053996;28;20033;-69
2022/07/20 10:00:15;;;;;;;1.67;1.58;;;26.60;56.10;;;;;;5052843;28;20047;-69
2022/07/20 10:02:41;;;;;;;2.00;1.80;;;26.60;56.10;;;;;;5053997;28;20029;-69
2022/07/20 10:05:07;;;;;;;2.20;1.50;;;26.60;56.10;;;;;;5053959;28;20025;-69
2022/07/20 10:07:33;;;;;;;1.75;1.65;;;26.60;56.20;;;;;;5053870;28;20029;-69
2022/07/20 10:09:58;;;;;;;1.63;1.50;;;26.60;56.20;;;;;;5052691;28;20036;-69
2022/07/20 10:12:24;;;;;;;2.03;1.83;;;26.60;56.20;;;;;;5052374;28;20060;-69
2022/07/20 10:14:51;;;;;;;1.65;1.48;;;26.60;56.20;;;;;;5035912;28;20037;-69
2022/07/20 10:17:17;;;;;;;1.67;1.58;;;26.60;56.20;;;;;;5052555;28;20078;-69
2022/07/20 10:19:45;;;;;;;1.85;1.65;;;26.60;56.30;;;;;;5052524;28;20108;-69
2022/07/20 10:22:11;;;;;;;1.83;1.73;;;26.60;56.30;;;;;;5053623;28;20598;-69
2022/07/20 10:24:38;;;;;;;1.63;1.52;;;26.60;56.20;;;;;;5052371;28;20022;-69
2022/07/20 10:27:19;;;;;;;1.70;1.58;;;26.60;56.20;;;;;;5053750;28;20483;-69
2022/07/20 10:29:48;;;;;;;1.80;1.70;;;26.60;56.20;;;;;;5053348;28;20029;-69
2022/07/20 10:32:23;;;;;;;1.70;1.60;;;26.60;56.20;;;;;;5052138;28;20510;-69
2022/07/20 10:35:01;;;;;;;1.77;1.60;;;26.60;56.30;;;;;;5053417;28;20036;-69
2022/07/20 10:37:37;;;;;;;1.80;1.70;;;26.60;56.20;;;;;;5052180;28;20103;-69
2022/07/20 10:40:22;;;;;;;1.55;1.40;;;26.60;56.20;;;;;;5052997;28;20099;-69
2022/07/20 10:42:48;;;;;;;2.17;1.92;;;26.60;56.30;;;;;;5053236;28;20052;-69
2022/07/20 10:45:17;;;;;;;1.60;1.50;;;26.60;56.30;;;;;;5053238;28;20025;-69
2022/07/20 10:47:43;;;;;;;2.60;1.70;;;26.60;56.30;;;;;;5053045;28;20495;-69
2022/07/20 10:50:09;;;;;;;1.75;1.65;;;26.60;56.20;;;;;;5053033;28;20078;-69
2022/07/20 10:52:35;;;;;;;1.83;1.70;;;26.60;56.20;;;;;;5052864;28;20028;-69
2022/07/20 10:55:01;;;;;;;1.98;1.67;;;26.60;56.30;;;;;;5052876;28;20032;-69
2022/07/20 10:57:27;;;;;;;1.70;1.45;;;26.60;56.10;;;;;;5035249;28;20025;-69
2022/07/20 11:00:11;;;;;;;2.35;1.65;;;26.60;56.20;;;;;;5052999;28;20028;-69
2022/07/20 11:02:37;;;;;;;1.55;1.45;;;26.60;56.10;;;;;;5052842;28;20082;-69
2022/07/20 11:05:03;;;;;;;1.92;1.63;;;26.60;56.10;;;;;;5052811;28;20112;-69
2022/07/20 11:07:34;;;;;;;1.60;1.50;;;26.60;56.10;;;;;;5051719;28;20033;-69
2022/07/20 11:10:01;;;;;;;2.58;1.90;;;26.60;56.00;;;;;;5052659;28;20475;-69
2022/07/20 11:12:30;;;;;;;1.88;1.70;;;26.60;56.10;;;;;;5052473;28;20044;-69
2022/07/20 11:14:56;;;;;;;2.72;1.83;;;26.60;56.10;;;;;;5052602;28;20033;-69
2022/07/20 11:17:23;;;;;;;1.60;1.50;;;26.60;56.10;;;;;;5052851;28;20040;-69
2022/07/20 11:19:49;;;;;;;2.08;1.70;;;26.60;56.30;;;;;;5051431;28;20367;-69
2022/07/20 11:22:15;;;;;;;1.52;1.33;;;26.60;56.20;;;;;;5051535;28;20025;-69
2022/07/20 11:24:40;;;;;;;1.70;1.60;;;26.60;56.20;;;;;;5051258;28;20021;-69
2022/07/20 11:27:15;;;;;;;1.73;1.63;;;26.60;56.20;;;;;;5051498;28;20055;-69
2022/07/20 11:29:49;;;;;;;1.70;1.60;;;26.60;56.20;;;;;;5052476;28;20395;-69
2022/07/20 11:32:15;;;;;;;1.75;1.60;;;26.60;56.20;;;;;;5052255;28;20036;-69
2022/07/20 11:34:48;;;;;;;1.60;1.50;;;26.60;56.20;;;;;;5051091;28;20025;-69
2022/07/20 11:37:15;;;;;;;2.10;1.73;;;26.60;57.30;;;;;;5052480;28;20055;-69
2022/07/20 11:39:41;;;;;;;2.90;1.75;;;26.60;56.20;;;;;;5052124;28;20471;-69
2022/07/20 11:42:13;;;;;;;1.50;1.40;;;26.60;56.30;;;;;;5052271;28;20112;-69
2022/07/20 11:44:39;;;;;;;1.70;1.60;;;26.60;56.30;;;;;;5052352;28;20025;-69
2022/07/20 11:47:04;;;;;;;2.00;1.80;;;26.60;56.20;;;;;;5052550;28;20029;-69
2022/07/20 11:49:30;;;;;;;1.95;1.73;;;26.60;57.20;;;;;;5052172;28;20032;-69
2022/07/20 11:52:05;;;;;;;2.10;1.90;;;26.60;56.30;;;;;;5052161;28;20082;-69
2022/07/20 11:54:33;;;;;;;2.25;1.40;;;26.60;56.20;;;;;;5051842;28;20074;-69
2022/07/20 11:56:59;;;;;;;2.75;2.05;;;26.60;56.30;;;;;;5052376;28;20092;-69
2022/07/20 11:59:25;;;;;;;1.70;1.60;;;26.60;56.30;;;;;;5054724;28;20143;-69
2022/07/20 12:01:52;;;;;;;1.58;1.48;;;26.60;56.40;;;;;;5056250;28;20390;-69
2022/07/20 12:04:19;;;;;;;1.70;1.60;;;26.60;56.30;;;;;;5055169;28;20463;-69
2022/07/20 12:06:44;;;;;;;1.60;1.50;;;26.60;56.30;;;;;;5055006;28;20053;-69
2022/07/20 12:09:18;;;;;;;1.80;1.65;;;26.60;56.30;;;;;;5038280;28;20491;-69
2022/07/20 12:11:54;;;;;;;1.95;1.75;;;26.60;56.40;;;;;;5054657;28;20049;-69
2022/07/20 12:14:36;;;;;;;1.80;1.70;;;26.60;56.40;;;;;;5056056;28;20029;-69
2022/07/20 12:17:11;;;;;;;;;;;26.60;56.40;;;;;;5055425;28;20464;-69
2022/07/20 12:19:38;;;;;;;1.70;1.58;;;26.60;56.40;;;;;;5055963;28;19950;-69
2022/07/20 12:22:04;;;;;;;2.00;1.70;;;26.60;56.40;;;;;;5055722;28;20013;-69
2022/07/20 12:24:30;;;;;;;1.70;1.60;;;26.60;56.50;;;;;;5055783;28;20099;-69
2022/07/20 12:27:05;;;;;;;1.88;1.63;;;26.60;56.50;;;;;;5054841;28;20029;-69
2022/07/20 12:29:30;;;;;;;1.83;1.40;;;26.60;56.40;;;;;;5055677;28;20033;-69
2022/07/20 12:32:06;;;;;;;1.98;1.70;;;26.50;56.40;;;;;;5054417;28;20021;-69
2022/07/20 12:34:50;;;;;;;3.05;1.85;;;26.50;56.40;;;;;;5034637;28;20033;-69
2022/07/20 12:37:16;;;;;;;2.42;2.22;;;26.50;56.40;;;;;;5035716;28;20014;-69
2022/07/20 12:39:53;;;;;;;3.80;2.00;;;26.50;56.40;;;;;;5034470;28;20040;-69
2022/07/20 12:42:27;;;;;;;1.70;1.60;;;26.50;56.40;;;;;;5035623;28;20064;-69
2022/07/20 12:45:04;;;;;;;2.47;2.00;;;26.60;56.50;;;;;;5034822;28;20060;-69
2022/07/20 12:47:30;;;;;;;2.05;1.88;;;26.60;56.50;;;;;;5034265;28;20033;-69
2022/07/20 12:49:55;;;;;;;1.50;1.40;;;26.50;56.40;;;;;;5048867;28;20453;-69